sensor_id;sensor_type;location;lat;lon;timestamp;temperature;humidity
17918;DHT22;9084;50.956;3.106;2022-12-18T00:01:00;-3.00;99.90
17918;DHT22;9084;50.956;3.106;2022-12-18T00:03:28;-3.00;99.90
17918;DHT22;9084;50.956;3.106;2022-12-18T00:05:54;-3.00;99.90
17918;DHT22;9084;50.956;3.106;2022-12-18T00:08:20;-3.10;99.90
17918;DHT22;9084;50.956;3.106;2022-12-18T00:10:46;-3.10;99.90
17918;DHT22;9084;50.956;3.106;2022-12-18T00:13:14;-3.10;99.90
17918;DHT22;9084;50.956;3.106;2022-12-18T00:15:40;-3.10;99.90
17918;DHT22;9084;50.956;3.106;2022-12-18T00:18:06;-3.00;99.90
17918;DHT22;9084;50.956;3.106;2022-12-18T00:20:38;-3.20;99.90
17918;DHT22;9084;50.956;3.106;2022-12-18T00:23:06;-3.10;99.90
17918;DHT22;9084;50.956;3.106;2022-12-18T00:25:34;-3.10;99.90
17918;DHT22;9084;50.956;3.106;2022-12-18T00:28:02;-3.10;99.90
17918;DHT22;9084;50.956;3.106;2022-12-18T00:30:28;-3.20;99.90
17918;DHT22;9084;50.956;3.106;2022-12-18T00:32:55;-3.20;99.90
17918;DHT22;9084;50.956;3.106;2022-12-18T00:35:23;-3.20;99.90
17918;DHT22;9084;50.956;3.106;2022-12-18T00:37:48;-3.20;99.90
17918;DHT22;9084;50.956;3.106;2022-12-18T00:40:16;-3.20;99.90
17918;DHT22;9084;50.956;3.106;2022-12-18T00:42:44;-3.20;99.90
17918;DHT22;9084;50.956;3.106;2022-12-18T00:45:29;-3.20;99.90
17918;DHT22;9084;50.956;3.106;2022-12-18T00:47:56;-3.20;99.90
17918;DHT22;9084;50.956;3.106;2022-12-18T00:50:23;-3.20;99.90
17918;DHT22;9084;50.956;3.106;2022-12-18T00:52:49;-3.20;99.90
17918;DHT22;9084;50.956;3.106;2022-12-18T00:55:15;-3.20;99.90
17918;DHT22;9084;50.956;3.106;2022-12-18T00:57:44;-3.20;99.90
17918;DHT22;9084;50.956;3.106;2022-12-18T01:00:14;-3.20;99.90
17918;DHT22;9084;50.956;3.106;2022-12-18T01:02:40;-3.30;99.90
17918;DHT22;9084;50.956;3.106;2022-12-18T01:05:07;-3.20;99.90
17918;DHT22;9084;50.956;3.106;2022-12-18T01:07:34;-3.20;99.90
17918;DHT22;9084;50.956;3.106;2022-12-18T01:10:00;-3.30;99.90
17918;DHT22;9084;50.956;3.106;2022-12-18T01:12:25;-3.20;99.90
17918;DHT22;9084;50.956;3.106;2022-12-18T01:14:51;-3.30;99.90
17918;DHT22;9084;50.956;3.106;2022-12-18T01:17:17;-3.20;99.90
17918;DHT22;9084;50.956;3.106;2022-12-18T01:19:45;-3.20;99.90
17918;DHT22;9084;50.956;3.106;2022-12-18T01:22:10;-3.20;99.90
17918;DHT22;9084;50.956;3.106;2022-12-18T01:24:36;-3.20;99.90
17918;DHT22;9084;50.956;3.106;2022-12-18T01:27:05;-3.20;99.90
17918;DHT22;9084;50.956;3.106;2022-12-18T01:29:33;-3.20;99.90
17918;DHT22;9084;50.956;3.106;2022-12-18T01:31:59;-3.20;99.90
17918;DHT22;9084;50.956;3.106;2022-12-18T01:34:25;-3.20;99.90
17918;DHT22;9084;50.956;3.106;2022-12-18T01:36:50;-3.20;99.90
17918;DHT22;9084;50.956;3.106;2022-12-18T01:39:18;-3.30;99.90
17918;DHT22;9084;50.956;3.106;2022-12-18T01:41:44;-3.30;99.90
17918;DHT22;9084;50.956;3.106;2022-12-18T01:50:13;-3.40;99.90
17918;DHT22;9084;50.956;3.106;2022-12-18T01:52:47;-3.30;99.90
17918;DHT22;9084;50.956;3.106;2022-12-18T01:55:16;-3.50;99.90
17918;DHT22;9084;50.956;3.106;2022-12-18T01:57:43;-3.50;99.90
17918;DHT22;9084;50.956;3.106;2022-12-18T02:00:15;-3.50;99.90
17918;DHT22;9084;50.956;3.106;2022-12-18T02:02:42;-3.50;99.90
17918;DHT22;9084;50.956;3.106;2022-12-18T02:05:10;-3.50;99.90
17918;DHT22;9084;50.956;3.106;2022-12-18T02:10:43;-3.50;99.90
17918;DHT22;9084;50.956;3.106;2022-12-18T02:16:03;-3.50;99.90
17918;DHT22;9084;50.956;3.106;2022-12-18T02:18:37;-3.30;99.90
17918;DHT22;9084;50.956;3.106;2022-12-18T02:21:51;-3.50;99.90
17918;DHT22;9084;50.956;3.106;2022-12-18T02:27:06;-3.40;99.90
17918;DHT22;9084;50.956;3.106;2022-12-18T02:29:41;-3.40;99.90
17918;DHT22;9084;50.956;3.106;2022-12-18T02:32:14;-3.40;99.90
17918;DHT22;9084;50.956;3.106;2022-12-18T02:34:41;-3.50;99.90
17918;DHT22;9084;50.956;3.106;2022-12-18T02:37:11;-3.30;99.90
17918;DHT22;9084;50.956;3.106;2022-12-18T02:39:41;-3.50;99.90
17918;DHT22;9084;50.956;3.106;2022-12-18T02:42:07;-3.50;99.90
17918;DHT22;9084;50.956;3.106;2022-12-18T02:44:51;-3.40;99.90
17918;DHT22;9084;50.956;3.106;2022-12-18T02:47:23;-3.40;99.90
17918;DHT22;9084;50.956;3.106;2022-12-18T02:53:27;-3.40;99.90
17918;DHT22;9084;50.956;3.106;2022-12-18T02:56:07;-3.50;99.90
17918;DHT22;9084;50.956;3.106;2022-12-18T02:58:51;-3.50;99.90
17918;DHT22;9084;50.956;3.106;2022-12-18T03:01:33;-3.50;99.90
17918;DHT22;9084;50.956;3.106;2022-12-18T03:07:14;-3.50;99.90
17918;DHT22;9084;50.956;3.106;2022-12-18T03:09:43;-3.50;99.90
17918;DHT22;9084;50.956;3.106;2022-12-18T03:12:34;-3.50;99.90
17918;DHT22;9084;50.956;3.106;2022-12-18T03:15:24;-3.50;99.90
17918;DHT22;9084;50.956;3.106;2022-12-18T03:17:59;-3.50;99.90
17918;DHT22;9084;50.956;3.106;2022-12-18T03:20:29;-3.40;99.90
17918;DHT22;9084;50.956;3.106;2022-12-18T03:23:15;-3.40;99.90
17918;DHT22;9084;50.956;3.106;2022-12-18T03:25:43;-3.40;99.90
17918;DHT22;9084;50.956;3.106;2022-12-18T03:28:16;-3.40;99.90
17918;DHT22;9084;50.956;3.106;2022-12-18T03:30:43;-3.40;99.90
17918;DHT22;9084;50.956;3.106;2022-12-18T03:33:31;-3.40;99.90
17918;DHT22;9084;50.956;3.106;2022-12-18T03:36:00;-3.40;99.90
17918;DHT22;9084;50.956;3.106;2022-12-18T03:38:25;-3.20;99.90
17918;DHT22;9084;50.956;3.106;2022-12-18T03:46:38;-3.40;99.90
17918;DHT22;9084;50.956;3.106;2022-12-18T03:49:12;-3.30;99.90
17918;DHT22;9084;50.956;3.106;2022-12-18T03:52:03;-3.30;99.90
17918;DHT22;9084;50.956;3.106;2022-12-18T03:54:30;-3.30;99.90
17918;DHT22;9084;50.956;3.106;2022-12-18T03:57:11;-3.30;99.90
17918;DHT22;9084;50.956;3.106;2022-12-18T03:59:39;-3.30;99.90
17918;DHT22;9084;50.956;3.106;2022-12-18T04:02:06;-3.30;99.90
17918;DHT22;9084;50.956;3.106;2022-12-18T04:04:38;-3.40;99.90
17918;DHT22;9084;50.956;3.106;2022-12-18T04:07:05;-3.40;99.90
17918;DHT22;9084;50.956;3.106;2022-12-18T04:09:35;-3.30;99.90
17918;DHT22;9084;50.956;3.106;2022-12-18T04:12:01;-3.40;99.90
17918;DHT22;9084;50.956;3.106;2022-12-18T04:14:27;-3.40;99.90
17918;DHT22;9084;50.956;3.106;2022-12-18T04:16:52;-3.30;99.90
17918;DHT22;9084;50.956;3.106;2022-12-18T04:19:20;-3.40;99.90
17918;DHT22;9084;50.956;3.106;2022-12-18T04:21:48;-3.40;99.90
17918;DHT22;9084;50.956;3.106;2022-12-18T04:24:16;-3.40;99.90
17918;DHT22;9084;50.956;3.106;2022-12-18T04:26:44;-3.40;99.90
17918;DHT22;9084;50.956;3.106;2022-12-18T04:29:11;-3.30;99.90
17918;DHT22;9084;50.956;3.106;2022-12-18T04:31:36;-3.30;99.90
17918;DHT22;9084;50.956;3.106;2022-12-18T04:34:05;-3.30;99.90
17918;DHT22;9084;50.956;3.106;2022-12-18T04:36:31;-3.30;99.90
17918;DHT22;9084;50.956;3.106;2022-12-18T04:38:56;-3.30;99.90
17918;DHT22;9084;50.956;3.106;2022-12-18T04:41:22;-3.30;99.90
17918;DHT22;9084;50.956;3.106;2022-12-18T04:43:51;-3.30;99.90
17918;DHT22;9084;50.956;3.106;2022-12-18T04:46:18;-3.40;99.90
17918;DHT22;9084;50.956;3.106;2022-12-18T04:48:45;-3.40;99.90
17918;DHT22;9084;50.956;3.106;2022-12-18T04:51:12;-3.40;99.90
17918;DHT22;9084;50.956;3.106;2022-12-18T04:53:38;-3.30;99.90
17918;DHT22;9084;50.956;3.106;2022-12-18T04:56:11;-3.30;99.90
17918;DHT22;9084;50.956;3.106;2022-12-18T04:58:39;-3.30;99.90
17918;DHT22;9084;50.956;3.106;2022-12-18T05:01:08;-3.20;99.90
17918;DHT22;9084;50.956;3.106;2022-12-18T05:03:35;-3.40;99.90
17918;DHT22;9084;50.956;3.106;2022-12-18T05:06:04;-3.40;99.90
17918;DHT22;9084;50.956;3.106;2022-12-18T05:08:31;-3.40;99.90
17918;DHT22;9084;50.956;3.106;2022-12-18T05:11:02;-3.20;99.90
17918;DHT22;9084;50.956;3.106;2022-12-18T05:13:29;-3.40;99.90
17918;DHT22;9084;50.956;3.106;2022-12-18T05:15:57;-3.50;99.90
17918;DHT22;9084;50.956;3.106;2022-12-18T05:18:25;-3.50;99.90
17918;DHT22;9084;50.956;3.106;2022-12-18T05:20:52;-3.40;99.90
17918;DHT22;9084;50.956;3.106;2022-12-18T05:23:19;-3.50;99.90
17918;DHT22;9084;50.956;3.106;2022-12-18T05:25:59;-3.50;99.90
17918;DHT22;9084;50.956;3.106;2022-12-18T05:28:26;-3.50;99.90
17918;DHT22;9084;50.956;3.106;2022-12-18T05:30:56;-3.20;99.90
17918;DHT22;9084;50.956;3.106;2022-12-18T05:33:23;-3.20;99.90
17918;DHT22;9084;50.956;3.106;2022-12-18T05:36:00;-3.40;99.90
17918;DHT22;9084;50.956;3.106;2022-12-18T05:38:27;-3.40;99.90
17918;DHT22;9084;50.956;3.106;2022-12-18T05:40:56;-3.50;99.90
17918;DHT22;9084;50.956;3.106;2022-12-18T05:43:23;-3.50;99.90
17918;DHT22;9084;50.956;3.106;2022-12-18T05:45:51;-3.50;99.90
17918;DHT22;9084;50.956;3.106;2022-12-18T05:48:23;-3.50;99.90
17918;DHT22;9084;50.956;3.106;2022-12-18T05:50:50;-3.50;99.90
17918;DHT22;9084;50.956;3.106;2022-12-18T05:53:18;-3.50;99.90
17918;DHT22;9084;50.956;3.106;2022-12-18T05:55:48;-3.50;99.90
17918;DHT22;9084;50.956;3.106;2022-12-18T05:58:16;-3.50;99.90
17918;DHT22;9084;50.956;3.106;2022-12-18T06:00:45;-3.50;99.90
17918;DHT22;9084;50.956;3.106;2022-12-18T06:03:14;-3.60;99.90
17918;DHT22;9084;50.956;3.106;2022-12-18T06:05:42;-3.60;99.90
17918;DHT22;9084;50.956;3.106;2022-12-18T06:08:12;-3.60;99.90
17918;DHT22;9084;50.956;3.106;2022-12-18T06:10:38;-3.60;99.90
17918;DHT22;9084;50.956;3.106;2022-12-18T06:13:05;-3.50;99.90
17918;DHT22;9084;50.956;3.106;2022-12-18T06:15:32;-3.50;99.90
17918;DHT22;9084;50.956;3.106;2022-12-18T06:18:01;-3.50;99.90
17918;DHT22;9084;50.956;3.106;2022-12-18T06:20:31;-3.50;99.90
17918;DHT22;9084;50.956;3.106;2022-12-18T06:22:58;-3.50;99.90
17918;DHT22;9084;50.956;3.106;2022-12-18T06:25:24;-3.40;99.90
17918;DHT22;9084;50.956;3.106;2022-12-18T06:27:50;-3.40;99.90
17918;DHT22;9084;50.956;3.106;2022-12-18T06:30:15;-3.40;99.90
17918;DHT22;9084;50.956;3.106;2022-12-18T06:32:41;-3.40;99.90
17918;DHT22;9084;50.956;3.106;2022-12-18T06:35:10;-3.40;99.90
17918;DHT22;9084;50.956;3.106;2022-12-18T06:37:36;-3.40;99.90
17918;DHT22;9084;50.956;3.106;2022-12-18T06:40:02;-3.40;99.90
17918;DHT22;9084;50.956;3.106;2022-12-18T06:42:29;-3.30;99.90
17918;DHT22;9084;50.956;3.106;2022-12-18T06:44:54;-3.40;99.90
17918;DHT22;9084;50.956;3.106;2022-12-18T06:47:23;-3.30;99.90
17918;DHT22;9084;50.956;3.106;2022-12-18T06:49:49;-3.30;99.90
17918;DHT22;9084;50.956;3.106;2022-12-18T06:52:16;-3.30;99.90
17918;DHT22;9084;50.956;3.106;2022-12-18T06:54:42;-3.30;99.90
17918;DHT22;9084;50.956;3.106;2022-12-18T06:57:08;-3.30;99.90
17918;DHT22;9084;50.956;3.106;2022-12-18T06:59:36;-3.30;99.90
17918;DHT22;9084;50.956;3.106;2022-12-18T07:02:02;-3.30;99.90
17918;DHT22;9084;50.956;3.106;2022-12-18T07:04:29;-3.30;99.90
17918;DHT22;9084;50.956;3.106;2022-12-18T07:06:55;-3.30;99.90
17918;DHT22;9084;50.956;3.106;2022-12-18T07:09:21;-3.40;99.90
17918;DHT22;9084;50.956;3.106;2022-12-18T07:11:49;-3.30;99.90
17918;DHT22;9084;50.956;3.106;2022-12-18T07:14:15;-3.30;99.90
17918;DHT22;9084;50.956;3.106;2022-12-18T07:16:40;-3.30;99.90
17918;DHT22;9084;50.956;3.106;2022-12-18T07:19:06;-3.30;99.90
17918;DHT22;9084;50.956;3.106;2022-12-18T07:21:32;-3.40;99.90
17918;DHT22;9084;50.956;3.106;2022-12-18T07:23:57;-3.30;99.90
17918;DHT22;9084;50.956;3.106;2022-12-18T07:26:23;-3.40;99.90
17918;DHT22;9084;50.956;3.106;2022-12-18T07:28:49;-3.20;99.90
17918;DHT22;9084;50.956;3.106;2022-12-18T07:31:20;-3.30;99.90
17918;DHT22;9084;50.956;3.106;2022-12-18T07:33:46;-3.40;99.90
17918;DHT22;9084;50.956;3.106;2022-12-18T07:36:13;-3.40;99.90
17918;DHT22;9084;50.956;3.106;2022-12-18T07:38:39;-3.40;99.90
17918;DHT22;9084;50.956;3.106;2022-12-18T07:41:11;-3.30;99.90
17918;DHT22;9084;50.956;3.106;2022-12-18T07:43:37;-3.30;99.90
17918;DHT22;9084;50.956;3.106;2022-12-18T07:46:04;-3.30;99.90
17918;DHT22;9084;50.956;3.106;2022-12-18T07:48:32;-3.20;99.90
17918;DHT22;9084;50.956;3.106;2022-12-18T07:51:07;-3.20;99.90
17918;DHT22;9084;50.956;3.106;2022-12-18T07:53:36;-3.10;99.90
17918;DHT22;9084;50.956;3.106;2022-12-18T07:56:11;-3.10;99.90
17918;DHT22;9084;50.956;3.106;2022-12-18T07:58:37;-3.00;99.90
17918;DHT22;9084;50.956;3.106;2022-12-18T08:01:09;-2.90;99.90
17918;DHT22;9084;50.956;3.106;2022-12-18T08:03:35;-2.80;99.50
17918;DHT22;9084;50.956;3.106;2022-12-18T08:06:04;-2.70;98.10
17918;DHT22;9084;50.956;3.106;2022-12-18T08:08:30;-2.60;96.50
17918;DHT22;9084;50.956;3.106;2022-12-18T08:10:56;-2.60;94.90
17918;DHT22;9084;50.956;3.106;2022-12-18T08:13:24;-2.60;93.00
17918;DHT22;9084;50.956;3.106;2022-12-18T08:16:02;-2.50;92.80
17918;DHT22;9084;50.956;3.106;2022-12-18T08:18:32;-2.40;92.80
17918;DHT22;9084;50.956;3.106;2022-12-18T08:21:15;-2.40;91.50
17918;DHT22;9084;50.956;3.106;2022-12-18T08:23:42;-2.40;91.20
17918;DHT22;9084;50.956;3.106;2022-12-18T08:26:08;-2.30;90.90
17918;DHT22;9084;50.956;3.106;2022-12-18T08:28:34;-2.20;90.60
17918;DHT22;9084;50.956;3.106;2022-12-18T08:31:00;-2.20;90.50
17918;DHT22;9084;50.956;3.106;2022-12-18T08:33:26;-2.20;91.70
17918;DHT22;9084;50.956;3.106;2022-12-18T08:35:55;-2.10;90.40
17918;DHT22;9084;50.956;3.106;2022-12-18T08:38:23;-1.90;88.90
17918;DHT22;9084;50.956;3.106;2022-12-18T08:40:53;-2.00;89.70
17918;DHT22;9084;50.956;3.106;2022-12-18T08:43:21;-2.00;88.10
17918;DHT22;9084;50.956;3.106;2022-12-18T08:46:06;-1.90;87.70
17918;DHT22;9084;50.956;3.106;2022-12-18T08:48:32;-1.90;83.10
17918;DHT22;9084;50.956;3.106;2022-12-18T08:50:59;-1.80;87.90
17918;DHT22;9084;50.956;3.106;2022-12-18T08:53:25;-1.80;87.50
17918;DHT22;9084;50.956;3.106;2022-12-18T08:55:56;-1.70;84.10
17918;DHT22;9084;50.956;3.106;2022-12-18T08:58:22;-1.50;79.50
17918;DHT22;9084;50.956;3.106;2022-12-18T09:00:48;-1.70;77.30
17918;DHT22;9084;50.956;3.106;2022-12-18T09:03:15;-1.60;79.10
17918;DHT22;9084;50.956;3.106;2022-12-18T09:05:41;-1.60;72.30
17918;DHT22;9084;50.956;3.106;2022-12-18T09:08:07;-1.50;75.10
17918;DHT22;9084;50.956;3.106;2022-12-18T09:10:33;-1.40;75.50
17918;DHT22;9084;50.956;3.106;2022-12-18T09:13:01;-1.40;69.40
17918;DHT22;9084;50.956;3.106;2022-12-18T09:15:27;-1.20;66.00
17918;DHT22;9084;50.956;3.106;2022-12-18T09:17:53;-1.40;62.50
17918;DHT22;9084;50.956;3.106;2022-12-18T09:20:19;-1.10;64.40
17918;DHT22;9084;50.956;3.106;2022-12-18T09:22:45;-1.30;60.70
17918;DHT22;9084;50.956;3.106;2022-12-18T09:25:13;-1.20;61.80
17918;DHT22;9084;50.956;3.106;2022-12-18T09:27:39;-1.10;60.00
17918;DHT22;9084;50.956;3.106;2022-12-18T09:30:05;-1.20;59.50
17918;DHT22;9084;50.956;3.106;2022-12-18T09:32:31;-1.10;58.90
17918;DHT22;9084;50.956;3.106;2022-12-18T09:34:59;-1.10;57.30
17918;DHT22;9084;50.956;3.106;2022-12-18T09:37:25;-1.00;49.20
17918;DHT22;9084;50.956;3.106;2022-12-18T09:39:50;-1.00;52.10
17918;DHT22;9084;50.956;3.106;2022-12-18T09:42:21;-1.00;52.00
17918;DHT22;9084;50.956;3.106;2022-12-18T09:44:53;-1.00;52.10
17918;DHT22;9084;50.956;3.106;2022-12-18T09:47:30;-0.90;54.40
17918;DHT22;9084;50.956;3.106;2022-12-18T09:50:02;-0.90;52.00
17918;DHT22;9084;50.956;3.106;2022-12-18T09:52:34;-0.90;51.60
17918;DHT22;9084;50.956;3.106;2022-12-18T09:57:39;-0.80;50.10
17918;DHT22;9084;50.956;3.106;2022-12-18T10:00:24;-0.80;51.30
17918;DHT22;9084;50.956;3.106;2022-12-18T10:02:56;-0.80;49.20
17918;DHT22;9084;50.956;3.106;2022-12-18T10:11:14;-0.70;50.10
17918;DHT22;9084;50.956;3.106;2022-12-18T10:13:55;-0.70;49.00
17918;DHT22;9084;50.956;3.106;2022-12-18T10:16:48;-0.70;50.50
17918;DHT22;9084;50.956;3.106;2022-12-18T10:19:26;-0.70;51.00
17918;DHT22;9084;50.956;3.106;2022-12-18T10:22:21;-0.60;52.90
17918;DHT22;9084;50.956;3.106;2022-12-18T10:25:25;-0.60;54.50
17918;DHT22;9084;50.956;3.106;2022-12-18T10:27:57;-0.60;51.10
17918;DHT22;9084;50.956;3.106;2022-12-18T10:30:24;-0.50;51.40
17918;DHT22;9084;50.956;3.106;2022-12-18T10:32:51;-0.50;48.40
17918;DHT22;9084;50.956;3.106;2022-12-18T10:35:26;-0.40;49.70
17918;DHT22;9084;50.956;3.106;2022-12-18T10:43:29;-0.40;54.10
17918;DHT22;9084;50.956;3.106;2022-12-18T10:51:29;-0.40;49.40
17918;DHT22;9084;50.956;3.106;2022-12-18T10:54:18;-0.20;49.90
17918;DHT22;9084;50.956;3.106;2022-12-18T10:56:45;-0.30;52.00
17918;DHT22;9084;50.956;3.106;2022-12-18T10:59:13;-0.30;53.50
17918;DHT22;9084;50.956;3.106;2022-12-18T11:01:54;-0.30;44.50
17918;DHT22;9084;50.956;3.106;2022-12-18T11:04:26;-0.30;47.90
17918;DHT22;9084;50.956;3.106;2022-12-18T11:07:06;-0.20;45.50
17918;DHT22;9084;50.956;3.106;2022-12-18T11:09:37;-0.30;46.60
17918;DHT22;9084;50.956;3.106;2022-12-18T11:12:19;-0.20;51.00
17918;DHT22;9084;50.956;3.106;2022-12-18T11:14:50;-0.10;52.30
17918;DHT22;9084;50.956;3.106;2022-12-18T11:17:22;-0.20;51.40
17918;DHT22;9084;50.956;3.106;2022-12-18T11:19:55;-0.10;52.70
17918;DHT22;9084;50.956;3.106;2022-12-18T11:22:30;-0.10;50.30
17918;DHT22;9084;50.956;3.106;2022-12-18T11:25:05;0.00;50.20
17918;DHT22;9084;50.956;3.106;2022-12-18T11:27:32;0.00;52.70
17918;DHT22;9084;50.956;3.106;2022-12-18T11:30:29;0.20;55.70
17918;DHT22;9084;50.956;3.106;2022-12-18T11:33:10;0.10;48.70
17918;DHT22;9084;50.956;3.106;2022-12-18T11:35:43;0.20;46.70
17918;DHT22;9084;50.956;3.106;2022-12-18T11:40:49;0.10;49.50
17918;DHT22;9084;50.956;3.106;2022-12-18T11:46:06;0.20;53.80
17918;DHT22;9084;50.956;3.106;2022-12-18T11:48:47;0.30;52.60
17918;DHT22;9084;50.956;3.106;2022-12-18T11:51:25;0.30;45.40
17918;DHT22;9084;50.956;3.106;2022-12-18T11:53:52;0.30;47.20
17918;DHT22;9084;50.956;3.106;2022-12-18T11:56:36;0.30;47.00
17918;DHT22;9084;50.956;3.106;2022-12-18T12:04:40;0.30;45.30
17918;DHT22;9084;50.956;3.106;2022-12-18T12:07:27;0.40;46.10
17918;DHT22;9084;50.956;3.106;2022-12-18T12:17:49;0.40;54.30
17918;DHT22;9084;50.956;3.106;2022-12-18T12:26:33;0.50;52.90
17918;DHT22;9084;50.956;3.106;2022-12-18T12:29:09;0.50;50.70
17918;DHT22;9084;50.956;3.106;2022-12-18T12:34:16;0.50;49.00
17918;DHT22;9084;50.956;3.106;2022-12-18T12:37:11;0.60;53.80
17918;DHT22;9084;50.956;3.106;2022-12-18T12:39:42;0.60;49.20
17918;DHT22;9084;50.956;3.106;2022-12-18T12:42:19;0.60;49.70
17918;DHT22;9084;50.956;3.106;2022-12-18T12:45:05;0.60;49.00
17918;DHT22;9084;50.956;3.106;2022-12-18T12:47:39;0.60;50.20
17918;DHT22;9084;50.956;3.106;2022-12-18T12:50:14;0.60;44.40
17918;DHT22;9084;50.956;3.106;2022-12-18T12:52:45;0.70;51.20
17918;DHT22;9084;50.956;3.106;2022-12-18T12:55:21;0.70;50.70
17918;DHT22;9084;50.956;3.106;2022-12-18T12:58:07;0.60;45.40
17918;DHT22;9084;50.956;3.106;2022-12-18T13:00:50;0.60;41.10
17918;DHT22;9084;50.956;3.106;2022-12-18T13:03:24;0.60;44.90
17918;DHT22;9084;50.956;3.106;2022-12-18T13:06:01;0.60;46.00
17918;DHT22;9084;50.956;3.106;2022-12-18T13:08:30;0.60;47.30
17918;DHT22;9084;50.956;3.106;2022-12-18T13:11:00;0.60;47.70
17918;DHT22;9084;50.956;3.106;2022-12-18T13:13:55;0.70;44.80
17918;DHT22;9084;50.956;3.106;2022-12-18T13:16:25;0.60;47.60
17918;DHT22;9084;50.956;3.106;2022-12-18T13:18:57;0.60;41.10
17918;DHT22;9084;50.956;3.106;2022-12-18T13:21:27;0.60;40.70
17918;DHT22;9084;50.956;3.106;2022-12-18T13:23:55;0.60;41.90
17918;DHT22;9084;50.956;3.106;2022-12-18T13:28:54;0.60;50.50
17918;DHT22;9084;50.956;3.106;2022-12-18T13:34:23;0.60;41.90
17918;DHT22;9084;50.956;3.106;2022-12-18T13:36:50;0.60;44.30
17918;DHT22;9084;50.956;3.106;2022-12-18T13:42:30;0.70;51.70
17918;DHT22;9084;50.956;3.106;2022-12-18T13:44:53;0.60;47.30
17918;DHT22;9084;50.956;3.106;2022-12-18T13:47:33;0.60;44.30
17918;DHT22;9084;50.956;3.106;2022-12-18T13:50:24;0.60;45.30
17918;DHT22;9084;50.956;3.106;2022-12-18T13:52:52;0.60;46.00
17918;DHT22;9084;50.956;3.106;2022-12-18T13:55:20;0.70;50.50
17918;DHT22;9084;50.956;3.106;2022-12-18T13:57:48;0.60;46.20
17918;DHT22;9084;50.956;3.106;2022-12-18T14:00:29;0.60;44.40
17918;DHT22;9084;50.956;3.106;2022-12-18T14:02:57;0.60;48.00
17918;DHT22;9084;50.956;3.106;2022-12-18T14:05:27;0.60;47.20
17918;DHT22;9084;50.956;3.106;2022-12-18T14:07:54;0.60;48.90
17918;DHT22;9084;50.956;3.106;2022-12-18T14:10:21;0.60;51.00
17918;DHT22;9084;50.956;3.106;2022-12-18T14:12:48;0.60;47.30
17918;DHT22;9084;50.956;3.106;2022-12-18T14:15:33;0.60;47.00
17918;DHT22;9084;50.956;3.106;2022-12-18T14:20:35;0.60;48.90
17918;DHT22;9084;50.956;3.106;2022-12-18T14:23:01;0.60;53.00
17918;DHT22;9084;50.956;3.106;2022-12-18T14:25:29;0.60;51.50
17918;DHT22;9084;50.956;3.106;2022-12-18T14:30:40;0.50;56.30
17918;DHT22;9084;50.956;3.106;2022-12-18T14:33:15;0.50;56.00
17918;DHT22;9084;50.956;3.106;2022-12-18T14:35:53;0.50;57.60
17918;DHT22;9084;50.956;3.106;2022-12-18T14:40:56;0.50;58.20
17918;DHT22;9084;50.956;3.106;2022-12-18T14:43:22;0.60;59.80
17918;DHT22;9084;50.956;3.106;2022-12-18T14:45:48;0.60;57.40
17918;DHT22;9084;50.956;3.106;2022-12-18T14:51:01;0.40;58.10
17918;DHT22;9084;50.956;3.106;2022-12-18T14:53:37;0.40;60.20
17918;DHT22;9084;50.956;3.106;2022-12-18T14:56:23;0.40;62.40
17918;DHT22;9084;50.956;3.106;2022-12-18T15:01:57;0.40;68.00
17918;DHT22;9084;50.956;3.106;2022-12-18T15:09:44;0.40;71.40
17918;DHT22;9084;50.956;3.106;2022-12-18T15:12:39;0.40;74.50
17918;DHT22;9084;50.956;3.106;2022-12-18T15:20:44;0.50;78.80
17918;DHT22;9084;50.956;3.106;2022-12-18T15:23:37;0.50;81.40
17918;DHT22;9084;50.956;3.106;2022-12-18T15:26:12;0.50;88.00
17918;DHT22;9084;50.956;3.106;2022-12-18T15:34:19;0.50;92.90
17918;DHT22;9084;50.956;3.106;2022-12-18T15:36:46;0.50;96.20
17918;DHT22;9084;50.956;3.106;2022-12-18T15:39:12;0.60;97.00
17918;DHT22;9084;50.956;3.106;2022-12-18T15:41:39;0.60;97.00
17918;DHT22;9084;50.956;3.106;2022-12-18T15:44:23;0.50;99.00
17918;DHT22;9084;50.956;3.106;2022-12-18T15:46:49;0.50;99.90
17918;DHT22;9084;50.956;3.106;2022-12-18T15:49:17;0.50;99.90
17918;DHT22;9084;50.956;3.106;2022-12-18T15:51:49;0.60;99.90
17918;DHT22;9084;50.956;3.106;2022-12-18T15:54:17;0.50;99.90
17918;DHT22;9084;50.956;3.106;2022-12-18T15:56:42;0.50;99.90
17918;DHT22;9084;50.956;3.106;2022-12-18T15:59:31;0.60;99.90
17918;DHT22;9084;50.956;3.106;2022-12-18T16:01:57;0.60;99.90
17918;DHT22;9084;50.956;3.106;2022-12-18T16:04:23;0.60;99.90
17918;DHT22;9084;50.956;3.106;2022-12-18T16:06:50;0.60;99.90
17918;DHT22;9084;50.956;3.106;2022-12-18T16:09:17;0.60;99.90
17918;DHT22;9084;50.956;3.106;2022-12-18T16:11:43;0.60;99.90
17918;DHT22;9084;50.956;3.106;2022-12-18T16:16:49;0.60;99.90
17918;DHT22;9084;50.956;3.106;2022-12-18T16:19:18;0.60;99.90
17918;DHT22;9084;50.956;3.106;2022-12-18T16:21:46;0.60;99.90
17918;DHT22;9084;50.956;3.106;2022-12-18T16:24:16;0.60;99.90
17918;DHT22;9084;50.956;3.106;2022-12-18T16:26:43;0.60;99.90
17918;DHT22;9084;50.956;3.106;2022-12-18T16:29:10;0.60;99.90
17918;DHT22;9084;50.956;3.106;2022-12-18T16:31:36;0.60;99.90
17918;DHT22;9084;50.956;3.106;2022-12-18T16:34:22;0.60;99.90
17918;DHT22;9084;50.956;3.106;2022-12-18T16:36:49;0.60;99.90
17918;DHT22;9084;50.956;3.106;2022-12-18T16:39:16;0.70;99.90
17918;DHT22;9084;50.956;3.106;2022-12-18T16:41:44;0.70;99.90
17918;DHT22;9084;50.956;3.106;2022-12-18T16:44:10;0.70;99.90
17918;DHT22;9084;50.956;3.106;2022-12-18T16:46:37;0.70;99.90
17918;DHT22;9084;50.956;3.106;2022-12-18T16:49:03;0.70;99.90
17918;DHT22;9084;50.956;3.106;2022-12-18T16:51:30;0.70;99.90
17918;DHT22;9084;50.956;3.106;2022-12-18T16:53:56;0.70;99.90
17918;DHT22;9084;50.956;3.106;2022-12-18T16:56:22;0.70;99.90
17918;DHT22;9084;50.956;3.106;2022-12-18T16:58:56;0.80;99.90
17918;DHT22;9084;50.956;3.106;2022-12-18T17:01:23;0.80;99.90
17918;DHT22;9084;50.956;3.106;2022-12-18T17:03:58;0.90;99.90
17918;DHT22;9084;50.956;3.106;2022-12-18T17:06:26;0.80;99.90
17918;DHT22;9084;50.956;3.106;2022-12-18T17:08:59;0.80;99.90
17918;DHT22;9084;50.956;3.106;2022-12-18T17:11:27;0.80;99.90
17918;DHT22;9084;50.956;3.106;2022-12-18T17:13:52;0.90;99.90
17918;DHT22;9084;50.956;3.106;2022-12-18T17:16:19;0.90;99.90
17918;DHT22;9084;50.956;3.106;2022-12-18T17:18:46;0.90;99.90
17918;DHT22;9084;50.956;3.106;2022-12-18T17:21:13;0.90;99.90
17918;DHT22;9084;50.956;3.106;2022-12-18T17:23:40;0.90;99.90
17918;DHT22;9084;50.956;3.106;2022-12-18T17:26:06;1.00;99.90
17918;DHT22;9084;50.956;3.106;2022-12-18T17:28:35;0.90;99.90
17918;DHT22;9084;50.956;3.106;2022-12-18T17:31:10;1.00;99.90
17918;DHT22;9084;50.956;3.106;2022-12-18T17:33:42;0.90;99.90
17918;DHT22;9084;50.956;3.106;2022-12-18T17:36:08;1.00;99.90
17918;DHT22;9084;50.956;3.106;2022-12-18T17:38:35;1.00;99.90
17918;DHT22;9084;50.956;3.106;2022-12-18T17:41:02;1.00;99.90
17918;DHT22;9084;50.956;3.106;2022-12-18T17:43:28;1.00;99.90
17918;DHT22;9084;50.956;3.106;2022-12-18T17:45:55;1.00;99.90
17918;DHT22;9084;50.956;3.106;2022-12-18T17:48:23;1.00;99.90
17918;DHT22;9084;50.956;3.106;2022-12-18T17:50:49;1.00;99.90
17918;DHT22;9084;50.956;3.106;2022-12-18T17:53:15;1.00;99.90
17918;DHT22;9084;50.956;3.106;2022-12-18T17:55:41;1.00;99.90
17918;DHT22;9084;50.956;3.106;2022-12-18T17:58:07;1.10;99.90
17918;DHT22;9084;50.956;3.106;2022-12-18T18:00:43;1.00;99.90
17918;DHT22;9084;50.956;3.106;2022-12-18T18:03:10;1.00;99.90
17918;DHT22;9084;50.956;3.106;2022-12-18T18:05:35;1.10;99.90
17918;DHT22;9084;50.956;3.106;2022-12-18T18:08:04;1.10;99.90